Time;durP1;ratioP1;P1;durP2;ratioP2;P2;SDS_P1;SDS_P2;PMS_P1;PMS_P2;Temp;Humidity;BMP_temperature;BMP_pressure;BME280_temperature;BME280_humidity;BME280_pressure;Samples;Min_cycle;Max_cycle;Signal;HPM_P1;HPM_P2
2022/05/27 00:02:13;;;;;;;3.80;2.80;;;11.10;99.90;;;;;;5036925;28;20511;-62
2022/05/27 00:04:39;;;;;;;4.07;3.13;;;11.10;99.90;;;;;;5039004;28;20897;-62
2022/05/27 00:07:05;;;;;;;3.30;3.00;;;11.10;99.90;;;;;;5036180;28;20552;-62
2022/05/27 00:09:31;;;;;;;3.77;3.00;;;11.00;99.90;;;;;;5039728;28;20563;-62
2022/05/27 00:11:56;;;;;;;13.77;9.20;;;11.10;99.90;;;;;;5040748;28;20357;-62
2022/05/27 00:14:22;;;;;;;12.47;6.87;;;11.10;99.90;;;;;;5033751;28;20640;-62
2022/05/27 00:16:48;;;;;;;6.40;5.03;;;11.10;99.90;;;;;;5043811;28;20249;-61
2022/05/27 00:19:13;;;;;;;8.13;5.60;;;11.10;99.90;;;;;;5042954;28;20190;-62
2022/05/27 00:21:39;;;;;;;13.23;8.57;;;11.00;99.90;;;;;;5055274;28;20207;-62
2022/05/27 00:24:05;;;;;;;12.03;8.83;;;11.00;99.90;;;;;;5037744;28;20256;-62
2022/05/27 00:26:31;;;;;;;58.37;29.50;;;11.00;99.90;;;;;;5059363;28;20475;-62
2022/05/27 00:28:57;;;;;;;25.23;14.47;;;11.00;99.90;;;;;;5038916;28;21236;-62
2022/05/27 00:31:23;;;;;;;8.93;5.50;;;10.90;99.90;;;;;;5040920;28;20191;-62
2022/05/27 00:33:49;;;;;;;6.57;3.43;;;10.90;99.90;;;;;;5033120;28;20433;-62
2022/05/27 00:36:15;;;;;;;3.90;3.30;;;10.90;99.90;;;;;;5033575;28;20193;-62
2022/05/27 00:38:44;;;;;;;5.30;3.33;;;10.90;99.90;;;;;;5024260;28;20813;-62
2022/05/27 00:41:11;;;;;;;4.73;3.73;;;10.80;99.90;;;;;;5035727;28;20207;-63
2022/05/27 00:43:39;;;;;;;3.67;3.33;;;10.80;99.90;;;;;;5038413;28;20797;-62
2022/05/27 00:46:13;;;;;;;4.10;3.23;;;10.70;99.90;;;;;;5035456;28;20462;-62
2022/05/27 00:48:41;;;;;;;3.30;3.00;;;10.70;99.90;;;;;;5039068;28;20432;-61
2022/05/27 00:51:15;;;;;;;2.93;2.70;;;10.60;99.90;;;;;;5037817;28;20438;-61
2022/05/27 00:53:57;;;;;;;4.30;2.90;;;10.60;99.90;;;;;;5037736;28;20457;-61
2022/05/27 00:56:28;;;;;;;4.00;2.63;;;10.50;99.90;;;;;;5039684;28;20449;-61
2022/05/27 00:58:59;;;;;;;3.10;2.47;;;10.50;99.90;;;;;;5047649;28;20433;-61
2022/05/27 01:01:27;;;;;;;4.43;2.80;;;10.50;99.90;;;;;;5036040;28;20430;-62
2022/05/27 01:03:55;;;;;;;7.83;4.00;;;10.40;99.90;;;;;;5036734;28;20426;-62
2022/05/27 01:06:21;;;;;;;3.30;3.00;;;10.40;99.90;;;;;;5034917;28;20981;-61
2022/05/27 01:08:47;;;;;;;15.70;8.20;;;10.40;99.90;;;;;;5038831;28;20584;-61
2022/05/27 01:11:27;;;;;;;34.77;17.00;;;10.40;99.90;;;;;;5035509;28;20222;-61
2022/05/27 01:13:56;;;;;;;16.27;8.80;;;10.40;99.90;;;;;;5036840;28;20162;-61
2022/05/27 01:16:44;;;;;;;9.93;7.30;;;10.40;99.90;;;;;;5037772;28;20461;-61
2022/05/27 01:22:34;;;;;;;3.33;3.03;;;10.40;99.90;;;;;;5036524;28;20460;-61
2022/05/27 01:25:02;;;;;;;3.33;3.03;;;10.30;99.90;;;;;;5014403;28;20433;-62
2022/05/27 01:27:54;;;;;;;3.00;2.80;;;10.30;99.90;;;;;;5031303;28;20469;-61
2022/05/27 01:30:22;;;;;;;5.40;2.83;;;10.30;99.90;;;;;;5028835;28;21172;-63
2022/05/27 01:32:55;;;;;;;8.33;2.97;;;10.20;99.90;;;;;;5034482;28;20460;-61
2022/05/27 01:35:33;;;;;;;3.03;2.83;;;10.20;99.90;;;;;;5034049;28;20990;-61
2022/05/27 01:38:12;;;;;;;4.37;2.83;;;10.20;99.90;;;;;;5033585;28;20433;-61
2022/05/27 01:40:43;;;;;;;3.30;3.00;;;10.20;99.90;;;;;;5034984;28;20475;-62
2022/05/27 01:43:17;;;;;;;3.03;2.80;;;10.20;99.90;;;;;;5036314;28;20541;-62
2022/05/27 01:45:54;;;;;;;2.73;2.50;;;10.20;99.90;;;;;;5031491;28;20902;-61
2022/05/27 01:48:25;;;;;;;3.27;2.90;;;10.10;99.90;;;;;;5036660;28;20503;-62
2022/05/27 01:51:09;;;;;;;3.57;3.03;;;10.10;99.90;;;;;;5037537;28;20857;-61
2022/05/27 01:53:40;;;;;;;3.10;2.90;;;10.10;99.90;;;;;;5032749;28;22647;-61
2022/05/27 01:56:14;;;;;;;3.10;2.80;;;10.00;99.90;;;;;;5033320;28;20883;-62
2022/05/27 01:58:49;;;;;;;6.23;3.23;;;10.00;99.90;;;;;;5033727;28;20437;-62
2022/05/27 02:01:19;;;;;;;3.30;3.00;;;10.00;99.90;;;;;;5030939;28;20429;-62
2022/05/27 02:04:14;;;;;;;4.20;2.90;;;9.90;99.90;;;;;;5034318;28;20437;-62
2022/05/27 02:06:50;;;;;;;2.87;2.67;;;9.90;99.90;;;;;;5036187;28;20490;-62
2022/05/27 02:09:18;;;;;;;4.20;2.73;;;9.90;99.90;;;;;;5030411;28;20448;-62
2022/05/27 02:11:48;;;;;;;3.27;2.97;;;9.90;99.90;;;;;;5032556;28;20476;-61
2022/05/27 02:14:23;;;;;;;3.00;2.73;;;9.90;99.90;;;;;;5031484;28;20815;-63
2022/05/27 02:16:56;;;;;;;3.47;3.10;;;9.90;99.90;;;;;;5031637;28;20457;-61
2022/05/27 02:19:30;;;;;;;2.90;2.57;;;9.90;99.90;;;;;;5033990;28;20445;-62
2022/05/27 02:22:13;;;;;;;7.87;3.30;;;9.90;99.90;;;;;;5013858;28;20484;-62
2022/05/27 02:24:47;;;;;;;3.50;3.20;;;9.80;99.90;;;;;;5036474;28;20549;-62
2022/05/27 02:27:19;;;;;;;2.97;2.77;;;9.80;99.90;;;;;;5035452;28;20461;-62
2022/05/27 02:29:50;;;;;;;2.80;2.60;;;9.80;99.90;;;;;;5037725;28;20499;-62
2022/05/27 02:32:30;;;;;;;4.10;2.83;;;9.70;99.90;;;;;;5036298;28;20462;-62
2022/05/27 02:35:22;;;;;;;3.90;2.77;;;9.70;99.90;;;;;;5034179;28;20510;-62
2022/05/27 02:37:51;;;;;;;3.33;3.03;;;9.70;99.90;;;;;;5029590;28;20561;-62
2022/05/27 02:40:22;;;;;;;3.43;3.00;;;9.70;99.90;;;;;;5030732;28;20430;-62
2022/05/27 02:43:17;;;;;;;2.73;2.53;;;9.60;99.90;;;;;;5032744;28;20869;-63
2022/05/27 02:45:43;;;;;;;2.73;2.53;;;9.70;99.90;;;;;;5031258;28;20445;-62
2022/05/27 02:48:53;;;;;;;3.20;2.90;;;9.60;99.90;;;;;;5031627;28;20431;-61
2022/05/27 02:51:32;;;;;;;2.97;2.73;;;9.60;99.90;;;;;;5013141;28;20196;-62
2022/05/27 02:54:16;;;;;;;4.20;2.53;;;9.60;99.90;;;;;;5031093;28;20437;-62
2022/05/27 02:57:00;;;;;;;4.50;2.57;;;9.60;99.90;;;;;;5031934;28;20504;-62
2022/05/27 02:59:28;;;;;;;2.93;2.73;;;9.60;99.90;;;;;;5030529;28;20548;-63
2022/05/27 03:01:53;;;;;;;3.13;2.90;;;9.60;99.90;;;;;;5031309;28;20830;-62
2022/05/27 03:04:20;;;;;;;3.60;3.30;;;9.60;99.90;;;;;;5031961;28;20441;-62
2022/05/27 03:07:24;;;;;;;5.50;2.87;;;9.60;99.90;;;;;;5036741;28;20203;-62
2022/05/27 03:09:59;;;;;;;2.93;2.73;;;9.50;99.90;;;;;;5022583;28;20437;-61
2022/05/27 03:13:00;;;;;;;3.40;3.00;;;9.60;99.90;;;;;;5030120;28;20449;-62
2022/05/27 03:15:43;;;;;;;3.50;3.20;;;9.50;99.90;;;;;;5030391;28;20477;-62
2022/05/27 03:18:25;;;;;;;3.60;2.90;;;9.50;99.90;;;;;;5031900;28;20930;-62
2022/05/27 03:20:55;;;;;;;3.10;2.90;;;9.50;99.90;;;;;;5030520;28;20430;-62
2022/05/27 03:23:37;;;;;;;7.27;3.13;;;9.50;99.90;;;;;;5033519;28;21042;-62
2022/05/27 03:26:27;;;;;;;3.83;3.47;;;9.40;99.90;;;;;;5030543;28;20604;-62
2022/05/27 03:29:20;;;;;;;3.27;2.97;;;9.40;99.90;;;;;;5033249;28;21018;-61
2022/05/27 03:32:01;;;;;;;4.00;3.20;;;9.40;99.90;;;;;;5046164;28;20457;-62
2022/05/27 03:34:49;;;;;;;5.10;3.07;;;9.40;99.90;;;;;;5017158;28;20440;-61
2022/05/27 03:37:40;;;;;;;7.00;3.40;;;9.40;99.90;;;;;;5029933;28;20462;-62
2022/05/27 03:40:16;;;;;;;5.80;2.87;;;9.40;99.90;;;;;;5028949;28;20483;-61
2022/05/27 03:42:43;;;;;;;3.53;2.83;;;9.30;99.90;;;;;;5030969;28;20578;-62
2022/05/27 03:45:16;;;;;;;3.07;2.80;;;9.30;99.90;;;;;;5028249;28;20941;-61
2022/05/27 03:47:43;;;;;;;3.47;3.00;;;9.40;99.90;;;;;;5028403;28;20474;-62
2022/05/27 03:50:16;;;;;;;3.87;2.60;;;9.30;99.90;;;;;;5028365;28;20434;-61
2022/05/27 03:52:45;;;;;;;7.60;3.43;;;9.40;99.90;;;;;;5032058;28;20470;-60
2022/05/27 03:55:13;;;;;;;4.00;2.63;;;9.40;99.90;;;;;;5034848;28;20468;-61
2022/05/27 03:57:39;;;;;;;3.20;3.00;;;9.30;99.90;;;;;;5030552;28;20499;-62
2022/05/27 04:00:06;;;;;;;4.03;3.63;;;9.30;99.90;;;;;;5033928;28;20449;-61
2022/05/27 04:02:32;;;;;;;3.40;3.10;;;9.30;99.90;;;;;;5047546;28;20272;-61
2022/05/27 04:04:58;;;;;;;5.40;3.57;;;9.30;99.90;;;;;;5028370;28;21717;-61
2022/05/27 04:07:23;;;;;;;3.90;3.23;;;9.30;99.90;;;;;;5024719;28;20699;-61
2022/05/27 04:09:49;;;;;;;4.07;2.93;;;9.30;99.90;;;;;;5026963;28;20195;-60
2022/05/27 04:12:15;;;;;;;6.07;3.50;;;9.30;99.90;;;;;;5035799;28;20199;-61
2022/05/27 04:14:41;;;;;;;3.67;3.37;;;9.40;99.90;;;;;;5029762;28;20555;-61
2022/05/27 04:19:51;;;;;;;5.30;3.50;;;9.40;99.90;;;;;;5032775;28;20440;-62
2022/05/27 04:22:16;;;;;;;7.70;3.20;;;9.50;99.90;;;;;;5033714;28;20453;-61
2022/05/27 04:24:42;;;;;;;4.13;3.73;;;9.50;99.90;;;;;;5033143;28;20222;-62
2022/05/27 04:27:10;;;;;;;3.83;3.50;;;9.50;99.90;;;;;;5038279;28;20719;-61
2022/05/27 04:29:45;;;;;;;3.30;3.10;;;9.40;99.90;;;;;;5037383;28;20180;-61
2022/05/27 04:32:10;;;;;;;3.67;3.37;;;9.40;99.90;;;;;;5038657;28;20452;-62
2022/05/27 04:34:36;;;;;;;4.40;3.40;;;9.40;99.90;;;;;;5038893;28;20426;-61
2022/05/27 04:37:02;;;;;;;4.30;3.07;;;9.50;99.90;;;;;;5037165;28;20215;-63
2022/05/27 04:39:28;;;;;;;4.37;3.80;;;9.50;99.90;;;;;;5034857;28;20187;-62
2022/05/27 04:41:54;;;;;;;6.70;3.63;;;9.60;99.90;;;;;;5028970;28;20499;-62
2022/05/27 04:44:20;;;;;;;4.33;2.70;;;9.70;99.90;;;;;;5030339;28;20241;-62
2022/05/27 04:46:45;;;;;;;4.77;3.00;;;9.80;99.90;;;;;;5034696;28;20655;-62
2022/05/27 04:49:50;;;;;;;5.77;3.50;;;9.80;99.90;;;;;;5031333;28;20171;-64
2022/05/27 04:52:00;;;;;;;3.10;2.80;;;9.90;99.90;;;;;;5033314;28;20191;-63
2022/05/27 04:54:29;;;;;;;3.30;3.03;;;10.00;99.90;;;;;;5035975;28;20510;-63
2022/05/27 04:56:55;;;;;;;3.87;3.47;;;10.10;99.90;;;;;;5029184;28;20450;-62
2022/05/27 04:59:21;;;;;;;3.10;2.90;;;10.20;99.90;;;;;;5033250;28;20805;-62
2022/05/27 05:01:47;;;;;;;9.37;3.53;;;10.30;99.90;;;;;;5024857;28;20495;-62
2022/05/27 05:04:13;;;;;;;5.63;3.27;;;10.50;99.90;;;;;;5027832;28;20995;-63
2022/05/27 05:06:39;;;;;;;3.93;3.20;;;10.60;99.90;;;;;;5033637;28;20212;-62
2022/05/27 05:09:04;;;;;;;6.03;3.20;;;10.70;99.90;;;;;;5035385;28;20172;-63
2022/05/27 05:11:30;;;;;;;3.57;3.03;;;10.80;99.90;;;;;;5030130;28;20182;-62
2022/05/27 05:13:55;;;;;;;3.73;3.43;;;10.90;99.90;;;;;;5032663;28;20179;-62
2022/05/27 05:16:21;;;;;;;5.60;3.20;;;11.00;99.90;;;;;;5036648;28;20191;-62
2022/05/27 05:18:47;;;;;;;3.40;3.10;;;11.00;99.90;;;;;;5031685;28;20554;-63
2022/05/27 05:21:13;;;;;;;3.53;3.30;;;11.10;99.90;;;;;;5031676;28;20190;-64
2022/05/27 05:23:39;;;;;;;3.40;3.13;;;11.20;99.90;;;;;;5031667;28;20212;-63
2022/05/27 05:26:05;;;;;;;3.43;2.90;;;11.20;99.90;;;;;;5034845;28;20195;-64
2022/05/27 05:28:30;;;;;;;4.20;3.23;;;11.30;99.90;;;;;;5030982;28;20427;-63
2022/05/27 05:30:56;;;;;;;4.70;3.40;;;11.40;99.90;;;;;;5026531;28;20442;-62
2022/05/27 05:33:22;;;;;;;4.43;3.33;;;11.50;99.90;;;;;;5035691;28;20223;-62
2022/05/27 05:35:47;;;;;;;4.10;2.63;;;11.50;99.90;;;;;;5034224;28;20172;-63
2022/05/27 05:38:13;;;;;;;3.20;2.90;;;11.70;99.90;;;;;;5034486;28;20598;-63
2022/05/27 05:40:39;;;;;;;8.80;3.33;;;11.80;99.90;;;;;;5029338;28;20262;-63
2022/05/27 05:43:06;;;;;;;6.47;3.43;;;11.90;99.90;;;;;;5033534;28;20265;-64
2022/05/27 05:45:31;;;;;;;14.23;3.20;;;12.00;99.90;;;;;;5031965;28;21014;-63
2022/05/27 05:47:57;;;;;;;3.27;2.97;;;12.10;99.90;;;;;;5031727;28;20452;-62
2022/05/27 05:50:23;;;;;;;3.57;3.27;;;12.20;99.90;;;;;;5030217;28;20201;-63
2022/05/27 05:52:48;;;;;;;3.60;3.30;;;12.30;99.90;;;;;;5034668;28;21024;-64
2022/05/27 05:55:16;;;;;;;3.40;3.10;;;12.50;99.90;;;;;;5026779;28;20590;-62
2022/05/27 05:57:44;;;;;;;4.40;3.20;;;12.60;99.90;;;;;;5027601;28;20603;-63
2022/05/27 06:00:13;;;;;;;3.50;3.00;;;12.60;99.90;;;;;;5030587;28;20973;-63
2022/05/27 06:02:39;;;;;;;4.13;3.13;;;12.70;99.90;;;;;;5031046;28;20510;-64
2022/05/27 06:05:06;;;;;;;7.10;3.60;;;12.80;99.90;;;;;;5029922;28;20521;-63
2022/05/27 06:07:32;;;;;;;4.57;3.30;;;12.90;99.70;;;;;;5030519;28;20464;-62
2022/05/27 06:09:58;;;;;;;5.30;3.50;;;13.00;99.90;;;;;;5028350;28;20438;-62
2022/05/27 06:12:24;;;;;;;4.67;3.57;;;13.20;99.90;;;;;;5024308;28;20512;-58
2022/05/27 06:14:51;;;;;;;6.57;3.27;;;13.30;99.70;;;;;;5026220;28;21305;-59
2022/05/27 06:17:17;;;;;;;4.70;3.30;;;13.50;99.30;;;;;;5024615;28;20990;-59
2022/05/27 06:19:42;;;;;;;5.53;2.90;;;13.60;98.60;;;;;;5030974;28;20525;-61
2022/05/27 06:22:08;;;;;;;4.63;3.10;;;13.70;98.00;;;;;;5029069;28;20474;-59
2022/05/27 06:24:34;;;;;;;6.27;2.43;;;13.90;96.00;;;;;;5035112;28;20198;-59
2022/05/27 06:27:00;;;;;;;5.70;2.90;;;14.00;96.90;;;;;;5033223;28;20196;-58
2022/05/27 06:34:54;;;;;;;2.60;2.37;;;14.30;91.00;;;;;;5024045;28;20555;-58
2022/05/27 06:37:21;;;;;;;4.00;2.63;;;14.40;91.60;;;;;;5027573;28;21021;-61
2022/05/27 06:39:48;;;;;;;4.37;2.87;;;14.50;91.80;;;;;;5031143;28;20230;-57
2022/05/27 06:42:15;;;;;;;3.50;2.27;;;14.60;90.40;;;;;;5030360;28;20469;-57
2022/05/27 06:44:41;;;;;;;2.73;2.50;;;14.80;90.10;;;;;;5026162;28;21111;-64
2022/05/27 06:47:08;;;;;;;4.90;2.60;;;14.90;85.30;;;;;;5025461;28;20453;-63
2022/05/27 06:49:36;;;;;;;2.63;2.43;;;15.00;86.30;;;;;;5036045;28;20193;-64
2022/05/27 06:52:04;;;;;;;4.00;2.13;;;15.20;81.40;;;;;;5029671;28;20445;-66
2022/05/27 06:54:29;;;;;;;4.40;2.20;;;15.20;79.10;;;;;;5035410;28;20426;-64
2022/05/27 06:56:55;;;;;;;4.63;2.50;;;15.30;77.90;;;;;;5035700;28;20448;-65
2022/05/27 06:59:22;;;;;;;4.43;2.20;;;15.30;77.40;;;;;;5029730;28;20179;-66
2022/05/27 07:01:48;;;;;;;5.47;2.73;;;15.40;77.00;;;;;;5033468;28;21051;-62
2022/05/27 07:04:17;;;;;;;2.30;2.10;;;15.50;75.70;;;;;;5027634;28;20441;-66
2022/05/27 07:06:45;;;;;;;2.83;2.00;;;15.50;74.10;;;;;;5031500;28;20464;-59
2022/05/27 07:09:12;;;;;;;4.83;2.70;;;15.50;74.10;;;;;;5034800;28;20445;-58
2022/05/27 07:11:40;;;;;;;4.33;2.30;;;15.60;75.10;;;;;;5036934;28;20452;-58
2022/05/27 07:14:06;;;;;;;5.60;1.87;;;15.70;76.60;;;;;;5024992;28;20460;-58
2022/05/27 07:16:32;;;;;;;2.97;2.17;;;15.80;73.00;;;;;;5028975;28;20517;-63
2022/05/27 07:18:57;;;;;;;3.43;2.47;;;15.90;72.50;;;;;;5036039;28;20969;-66
2022/05/27 07:21:24;;;;;;;3.13;2.23;;;16.00;70.30;;;;;;5027667;28;20210;-62
2022/05/27 07:23:53;;;;;;;2.20;2.00;;;16.10;70.10;;;;;;5044297;28;20170;-63
2022/05/27 07:26:21;;;;;;;5.17;2.27;;;16.10;69.00;;;;;;5037970;28;20495;-60
2022/05/27 07:28:47;;;;;;;1.80;1.70;;;16.20;68.50;;;;;;5040741;28;20421;-62
2022/05/27 07:31:12;;;;;;;2.77;2.20;;;16.20;67.50;;;;;;5032611;28;20432;-62
2022/05/27 07:33:38;;;;;;;2.23;1.90;;;16.20;68.20;;;;;;5039505;28;20566;-62
2022/05/27 07:36:04;;;;;;;3.57;2.40;;;16.30;67.60;;;;;;5033375;28;20182;-62
2022/05/27 07:38:29;;;;;;;2.23;2.00;;;16.40;66.60;;;;;;5030745;28;20680;-61
2022/05/27 07:40:55;;;;;;;3.93;2.03;;;16.40;66.40;;;;;;5038649;28;20441;-62
2022/05/27 07:43:21;;;;;;;1.90;1.80;;;16.40;65.80;;;;;;5033705;28;20199;-63
2022/05/27 07:45:47;;;;;;;2.93;2.00;;;16.50;65.20;;;;;;5035007;28;20170;-63
2022/05/27 07:48:13;;;;;;;3.00;1.80;;;16.50;65.20;;;;;;5036110;28;20177;-62
2022/05/27 07:50:39;;;;;;;2.40;1.93;;;16.60;65.00;;;;;;5036115;28;20422;-62
2022/05/27 07:53:05;;;;;;;1.97;1.70;;;16.60;64.40;;;;;;5032717;28;20187;-62
2022/05/27 07:55:31;;;;;;;3.17;2.03;;;16.70;65.00;;;;;;5031041;28;20425;-62
2022/05/27 07:57:57;;;;;;;3.90;2.40;;;16.70;65.00;;;;;;5038699;28;20541;-62
2022/05/27 08:00:29;;;;;;;3.10;2.10;;;16.80;64.30;;;;;;5033992;28;21087;-62
2022/05/27 08:02:55;;;;;;;2.23;1.60;;;16.80;64.20;;;;;;5035829;28;20457;-61
2022/05/27 08:05:24;;;;;;;1.90;1.77;;;16.90;63.80;;;;;;5031532;28;20439;-62
2022/05/27 08:07:52;;;;;;;5.27;2.30;;;16.90;63.80;;;;;;5035625;28;20453;-62
2022/05/27 08:10:21;;;;;;;3.20;1.93;;;16.90;63.60;;;;;;5035943;28;20502;-62
2022/05/27 08:12:47;;;;;;;2.30;1.97;;;16.90;64.10;;;;;;5033873;28;20441;-62
2022/05/27 08:15:13;;;;;;;5.50;2.40;;;16.90;64.00;;;;;;5036225;28;20838;-62
2022/05/27 08:17:39;;;;;;;2.83;2.13;;;16.90;64.10;;;;;;5035273;28;20675;-65
2022/05/27 08:20:08;;;;;;;2.70;1.93;;;16.80;64.20;;;;;;5035081;28;20426;-62
2022/05/27 08:22:34;;;;;;;3.03;1.97;;;16.80;64.20;;;;;;5035659;28;20468;-63
2022/05/27 08:25:00;;;;;;;2.87;2.10;;;16.90;63.30;;;;;;5034213;28;21078;-62
2022/05/27 08:27:25;;;;;;;2.33;1.97;;;17.00;63.00;;;;;;5032969;28;20589;-63
2022/05/27 08:29:51;;;;;;;4.47;2.13;;;17.10;63.00;;;;;;5040391;28;20178;-59
2022/05/27 08:32:16;;;;;;;4.60;3.37;;;17.20;63.60;;;;;;5034744;28;20700;-62
2022/05/27 08:38:02;;;;;;;3.23;1.90;;;17.60;62.00;;;;;;5034133;28;20601;-62
2022/05/27 08:40:49;;;;;;;4.87;2.20;;;17.70;62.00;;;;;;5027367;28;20907;-61
2022/05/27 08:43:33;;;;;;;3.47;2.53;;;17.80;60.40;;;;;;5017929;28;20453;-63
2022/05/27 08:46:08;;;;;;;5.20;2.40;;;17.90;61.30;;;;;;5026244;28;20426;-62
2022/05/27 08:48:38;;;;;;;2.77;1.97;;;18.00;60.30;;;;;;5026706;28;20445;-62
2022/05/27 08:51:11;;;;;;;4.53;2.10;;;18.10;59.50;;;;;;5026029;28;20414;-62
2022/05/27 08:54:00;;;;;;;2.90;2.03;;;18.10;59.30;;;;;;5030893;28;22335;-62
2022/05/27 08:59:45;;;;;;;1.77;1.67;;;18.30;59.90;;;;;;5031215;28;20787;-62
2022/05/27 09:02:42;;;;;;;4.00;1.80;;;18.40;59.00;;;;;;5021929;28;20492;-62
2022/05/27 09:05:26;;;;;;;4.50;2.30;;;18.40;60.00;;;;;;5031497;28;20532;-62
2022/05/27 09:08:16;;;;;;;3.13;2.13;;;18.50;59.60;;;;;;5032834;28;21046;-62
2022/05/27 09:11:03;;;;;;;2.80;1.93;;;18.50;59.00;;;;;;5026556;28;20931;-62
2022/05/27 09:13:40;;;;;;;4.43;1.83;;;18.40;59.30;;;;;;5029200;28;21592;-61
2022/05/27 09:16:17;;;;;;;2.63;1.60;;;18.20;59.80;;;;;;5031230;28;21145;-62
2022/05/27 09:19:02;;;;;;;2.40;1.63;;;18.10;60.10;;;;;;5031452;28;20451;-61
2022/05/27 09:22:07;;;;;;;3.07;1.73;;;18.20;60.30;;;;;;5029718;28;20467;-62
2022/05/27 09:24:35;;;;;;;6.40;2.10;;;18.20;59.30;;;;;;5028980;28;20483;-62
2022/05/27 09:27:07;;;;;;;2.60;1.83;;;18.40;58.80;;;;;;5031420;28;20519;-62
2022/05/27 09:29:52;;;;;;;2.10;1.60;;;18.50;58.40;;;;;;5037392;28;20480;-59
2022/05/27 09:32:40;;;;;;;3.10;1.73;;;18.50;58.60;;;;;;5025131;28;20452;-62
2022/05/27 09:35:13;;;;;;;2.50;2.00;;;18.40;58.80;;;;;;5040362;28;20449;-61
2022/05/27 09:37:44;;;;;;;1.93;1.67;;;18.60;58.90;;;;;;5036777;28;20475;-60
2022/05/27 09:40:17;;;;;;;4.23;1.60;;;18.80;58.90;;;;;;5030604;28;20939;-61
2022/05/27 09:43:04;;;;;;;3.70;1.90;;;19.00;58.10;;;;;;5033130;28;20497;-61
2022/05/27 09:45:30;;;;;;;5.20;2.37;;;19.30;58.80;;;;;;5031317;28;20508;-62
2022/05/27 09:48:00;;;;;;;3.33;1.50;;;19.40;57.80;;;;;;5031956;28;20580;-62
2022/05/27 09:50:33;;;;;;;2.17;1.63;;;19.50;57.30;;;;;;5044205;28;20171;-62
2022/05/27 09:53:00;;;;;;;2.97;2.00;;;19.80;58.40;;;;;;5017854;28;20613;-63
2022/05/27 09:56:02;;;;;;;9.47;3.80;;;19.90;57.00;;;;;;5032246;28;20528;-62
2022/05/27 09:58:32;;;;;;;1.80;1.70;;;20.10;57.10;;;;;;5031922;28;20448;-61
2022/05/27 10:01:01;;;;;;;2.40;2.10;;;20.20;56.10;;;;;;5036027;28;20836;-61
2022/05/27 10:03:39;;;;;;;2.37;2.03;;;20.10;56.80;;;;;;5032975;28;20566;-62
2022/05/27 10:06:12;;;;;;;5.93;2.10;;;20.00;57.40;;;;;;5036174;28;20417;-61
2022/05/27 10:08:55;;;;;;;8.30;2.40;;;20.20;58.00;;;;;;5033737;28;20631;-61
2022/05/27 10:11:28;;;;;;;4.30;2.07;;;20.60;58.70;;;;;;5024226;28;21974;-56
2022/05/27 10:14:06;;;;;;;3.63;1.60;;;20.80;55.70;;;;;;5036287;28;20421;-55
2022/05/27 10:16:33;;;;;;;1.80;1.60;;;20.90;55.20;;;;;;5034141;28;20461;-56
2022/05/27 10:19:22;;;;;;;3.90;2.00;;;20.90;56.00;;;;;;5039730;28;20479;-56
2022/05/27 10:21:54;;;;;;;3.23;1.70;;;21.10;55.80;;;;;;5033588;28;20774;-59
2022/05/27 10:24:35;;;;;;;5.50;2.10;;;21.20;54.60;;;;;;5042724;28;20945;-58
2022/05/27 10:27:06;;;;;;;3.63;1.90;;;21.30;55.30;;;;;;5046811;28;21019;-58
2022/05/27 10:29:34;;;;;;;1.90;1.70;;;21.40;54.60;;;;;;5036099;28;20936;-57
2022/05/27 10:32:01;;;;;;;3.20;1.80;;;21.50;54.10;;;;;;5036097;28;20537;-59
2022/05/27 10:34:48;;;;;;;1.83;1.73;;;21.50;53.30;;;;;;5028538;28;20421;-57
2022/05/27 10:37:40;;;;;;;1.67;1.57;;;21.40;54.10;;;;;;5034312;28;20942;-60
2022/05/27 10:40:43;;;;;;;2.20;1.30;;;21.40;53.80;;;;;;5031411;28;20859;-57
2022/05/27 10:43:24;;;;;;;5.17;1.80;;;21.30;54.30;;;;;;5011375;28;20461;-56
2022/05/27 10:45:55;;;;;;;1.57;1.47;;;21.30;52.10;;;;;;5027241;28;20429;-56
2022/05/27 10:48:33;;;;;;;2.17;1.90;;;21.30;51.90;;;;;;5034461;28;20433;-56
2022/05/27 10:51:07;;;;;;;3.67;1.70;;;21.40;51.60;;;;;;5029811;28;20467;-56
2022/05/27 10:53:47;;;;;;;3.17;1.60;;;21.40;52.10;;;;;;5029707;28;20452;-61
2022/05/27 10:56:24;;;;;;;2.50;1.80;;;21.50;51.80;;;;;;5035312;28;20451;-59
2022/05/27 11:02:14;;;;;;;2.10;1.50;;;21.70;52.30;;;;;;5034403;28;21129;-59
2022/05/27 11:05:10;;;;;;;7.33;1.50;;;21.80;50.50;;;;;;5036668;28;20973;-58
2022/05/27 11:07:43;;;;;;;2.70;1.20;;;21.90;51.30;;;;;;5032875;28;20468;-58
2022/05/27 11:10:18;;;;;;;2.53;1.50;;;22.00;50.30;;;;;;5030872;28;20549;-59
2022/05/27 11:16:08;;;;;;;4.43;1.47;;;22.10;48.80;;;;;;5026848;28;20442;-62
2022/05/27 11:19:04;;;;;;;2.87;1.30;;;22.10;49.60;;;;;;5036009;28;20429;-62
2022/05/27 11:21:59;;;;;;;1.50;1.40;;;22.10;49.10;;;;;;5036000;28;20488;-61
2022/05/27 11:24:48;;;;;;;4.73;1.70;;;22.10;49.40;;;;;;5036956;28;20507;-62
2022/05/27 11:27:37;;;;;;;3.70;1.60;;;22.20;49.70;;;;;;5036563;28;20461;-61
2022/05/27 11:30:32;;;;;;;1.60;1.33;;;22.30;50.60;;;;;;5035772;28;20537;-61
2022/05/27 11:33:35;;;;;;;2.00;1.70;;;22.50;49.20;;;;;;5033575;28;20453;-61
2022/05/27 11:36:30;;;;;;;1.90;1.30;;;22.50;48.50;;;;;;5029618;28;20426;-62
2022/05/27 11:39:20;;;;;;;2.40;1.80;;;22.60;47.70;;;;;;5027970;28;20438;-61
2022/05/27 11:41:49;;;;;;;1.63;1.53;;;22.60;47.40;;;;;;5040667;28;20450;-60
2022/05/27 11:44:42;;;;;;;5.30;1.50;;;22.60;47.70;;;;;;5038630;28;20426;-60
2022/05/27 11:47:08;;;;;;;2.30;1.40;;;22.70;47.90;;;;;;5026571;28;20452;-61
2022/05/27 11:50:25;;;;;;;3.23;2.20;;;22.90;48.50;;;;;;5046214;28;20438;-59
2022/05/27 11:53:16;;;;;;;1.80;1.70;;;23.10;47.40;;;;;;4974958;28;20693;-60
2022/05/27 11:55:57;;;;;;;1.70;1.40;;;23.10;45.60;;;;;;5051199;28;20899;-61
2022/05/27 11:58:52;;;;;;;1.80;1.70;;;23.20;44.30;;;;;;5037194;28;20433;-60
2022/05/27 12:01:35;;;;;;;1.40;1.20;;;23.20;45.00;;;;;;5051239;28;20406;-61
2022/05/27 12:04:09;;;;;;;2.70;1.10;;;23.20;45.80;;;;;;5044632;28;20942;-60
2022/05/27 12:06:51;;;;;;;2.27;1.30;;;23.40;44.00;;;;;;5046723;28;20457;-61
2022/05/27 12:09:24;;;;;;;1.77;1.47;;;23.40;43.80;;;;;;5049764;28;20401;-60
2022/05/27 12:11:55;;;;;;;3.67;1.50;;;23.50;44.80;;;;;;5040713;28;20449;-62
2022/05/27 12:14:38;;;;;;;2.40;1.67;;;23.60;44.70;;;;;;5034053;28;20428;-61
2022/05/27 12:17:09;;;;;;;1.40;1.30;;;23.70;43.90;;;;;;5046311;28;20835;-62
2022/05/27 12:19:41;;;;;;;4.30;1.57;;;23.70;42.90;;;;;;5053992;28;20444;-60
2022/05/27 12:22:15;;;;;;;1.53;1.30;;;23.70;42.40;;;;;;5052675;28;20516;-61
2022/05/27 12:24:47;;;;;;;2.10;1.30;;;23.70;41.20;;;;;;5041392;28;20556;-61
2022/05/27 12:27:15;;;;;;;1.97;1.30;;;23.70;40.50;;;;;;5042185;28;20815;-60
2022/05/27 12:29:46;;;;;;;1.80;1.47;;;23.60;40.10;;;;;;5047775;28;21008;-59
2022/05/27 12:32:13;;;;;;;7.13;1.40;;;23.60;40.70;;;;;;5043118;28;20475;-59
2022/05/27 12:34:44;;;;;;;3.80;1.47;;;23.40;41.70;;;;;;5045812;28;20517;-60
2022/05/27 12:37:15;;;;;;;4.53;1.40;;;23.50;42.80;;;;;;5052767;28;20437;-60
2022/05/27 12:39:42;;;;;;;2.10;1.67;;;23.70;43.90;;;;;;5048169;28;20844;-60
2022/05/27 12:42:13;;;;;;;6.43;1.47;;;23.90;43.50;;;;;;5048999;28;20977;-60
2022/05/27 12:44:40;;;;;;;4.20;1.70;;;24.00;44.70;;;;;;5056455;28;20445;-59
2022/05/27 12:47:34;;;;;;;3.43;1.80;;;24.10;44.70;;;;;;5044114;28;20461;-60
2022/05/27 12:50:22;;;;;;;3.80;1.60;;;24.20;44.00;;;;;;5041531;28;20503;-61
2022/05/27 12:52:47;;;;;;;1.57;1.47;;;24.20;44.00;;;;;;5053023;28;20651;-61
2022/05/27 12:55:42;;;;;;;2.60;1.50;;;24.20;44.10;;;;;;5056004;28;20425;-60
2022/05/27 13:00:59;;;;;;;2.70;1.47;;;24.60;43.10;;;;;;5046713;28;21040;-61
2022/05/27 13:03:38;;;;;;;1.90;1.50;;;24.70;42.70;;;;;;5057869;28;20421;-61
2022/05/27 13:06:07;;;;;;;2.23;1.40;;;24.70;41.00;;;;;;5047940;28;21079;-60
2022/05/27 13:08:42;;;;;;;6.27;1.50;;;24.70;41.00;;;;;;5058088;28;20421;-60
2022/05/27 13:11:27;;;;;;;3.00;1.60;;;24.80;42.40;;;;;;5042686;28;20421;-61
2022/05/27 13:14:13;;;;;;;1.93;1.40;;;24.90;42.90;;;;;;5046317;28;20461;-61
2022/05/27 13:16:44;;;;;;;1.70;1.40;;;24.80;42.80;;;;;;5028994;28;20437;-61
2022/05/27 13:19:26;;;;;;;3.17;1.53;;;25.00;42.90;;;;;;5062084;28;20996;-61
2022/05/27 13:21:52;;;;;;;4.50;1.53;;;25.20;43.00;;;;;;5054178;28;20495;-60
2022/05/27 13:24:17;;;;;;;1.57;1.27;;;25.30;41.70;;;;;;5049011;28;20945;-60
2022/05/27 13:27:10;;;;;;;1.50;1.27;;;25.30;40.60;;;;;;5046371;28;20311;-60
2022/05/27 13:29:49;;;;;;;2.70;1.60;;;25.40;41.40;;;;;;5047579;28;20233;-58
2022/05/27 13:32:24;;;;;;;4.70;1.50;;;25.40;41.30;;;;;;5047492;28;20426;-60
2022/05/27 13:34:57;;;;;;;2.63;1.27;;;25.50;42.20;;;;;;5038978;28;20417;-60
2022/05/27 13:37:37;;;;;;;2.47;1.73;;;25.60;41.60;;;;;;5041108;28;20524;-60
2022/05/27 13:40:14;;;;;;;2.27;1.97;;;25.60;41.10;;;;;;5048555;28;20429;-60
2022/05/27 13:42:50;;;;;;;1.90;1.70;;;25.40;41.80;;;;;;5043291;28;20433;-61
2022/05/27 13:45:21;;;;;;;2.10;1.70;;;25.40;42.30;;;;;;5049353;28;20428;-60
2022/05/27 13:48:07;;;;;;;1.60;1.50;;;25.40;42.00;;;;;;5056994;28;20475;-60